createdAt,value
2022-10-25T00:02:30.760Z,2.22
2022-10-25T00:07:32.268Z,2.30
2022-10-25T00:12:34.200Z,2.63
2022-10-25T00:17:35.750Z,2.42
2022-10-25T00:22:37.983Z,3.10
2022-10-25T00:27:39.548Z,3.30
2022-10-25T00:32:41.156Z,3.13
2022-10-25T00:37:42.599Z,4.13
2022-10-25T00:42:44.722Z,3.85
2022-10-25T00:48:10.278Z,4.90
2022-10-25T00:53:16.739Z,4.78
2022-10-25T00:58:23.761Z,5.90
2022-10-25T01:03:25.647Z,5.57
2022-10-25T01:08:27.135Z,5.68
2022-10-25T01:13:28.759Z,5.88
2022-10-25T01:18:43.332Z,6.28
2022-10-25T01:23:53.249Z,5.72
2022-10-25T01:34:13.622Z,6.10
2022-10-25T01:39:25.964Z,6.72
2022-10-25T01:50:00.643Z,5.82
2022-10-25T01:55:03.246Z,6.90
2022-10-25T02:00:11.582Z,6.40
2022-10-25T02:05:25.044Z,6.53
2022-10-25T02:10:38.353Z,6.45
2022-10-25T02:15:41.745Z,7.45
2022-10-25T02:20:46.768Z,6.75
2022-10-25T02:25:50.281Z,7.35
2022-10-25T02:30:53.133Z,8.60
2022-10-25T02:36:12.184Z,7.28
2022-10-25T02:41:13.780Z,7.40
2022-10-25T02:46:18.056Z,7.55
2022-10-25T02:51:20.663Z,7.47
2022-10-25T02:56:22.891Z,8.65
2022-10-25T03:01:25.214Z,7.75
2022-10-25T03:06:26.723Z,8.07
2022-10-25T03:11:28.573Z,8.20
2022-10-25T03:16:30.070Z,7.85
2022-10-25T03:21:31.606Z,7.50
2022-10-25T03:26:33.035Z,8.93
2022-10-25T03:31:34.595Z,8.32
2022-10-25T03:36:36.083Z,7.68
2022-10-25T03:41:37.528Z,7.63
2022-10-25T03:46:40.259Z,7.60
2022-10-25T03:51:41.781Z,8.10
2022-10-25T03:56:43.277Z,8.20
2022-10-25T04:01:44.851Z,7.57
2022-10-25T04:06:46.667Z,8.00
2022-10-25T04:11:48.136Z,8.23
2022-10-25T04:16:49.663Z,7.82
2022-10-25T04:21:51.167Z,7.93
2022-10-25T04:26:52.641Z,7.90
2022-10-25T04:31:54.241Z,8.07
2022-10-25T04:36:55.764Z,7.40
2022-10-25T04:41:57.434Z,8.85
2022-10-25T04:46:58.952Z,8.55
2022-10-25T04:52:00.460Z,7.90
2022-10-25T04:57:01.974Z,8.85
2022-10-25T05:02:03.453Z,7.95
2022-10-25T05:07:05.025Z,8.32
2022-10-25T05:12:06.516Z,7.78
2022-10-25T05:17:08.014Z,7.03
2022-10-25T05:22:09.487Z,7.22
2022-10-25T05:27:10.946Z,7.57
2022-10-25T05:32:12.817Z,6.88
2022-10-25T05:37:14.880Z,7.57
2022-10-25T05:42:16.829Z,7.75
2022-10-25T05:47:18.454Z,6.35
2022-10-25T05:52:20.098Z,6.75
2022-10-25T05:57:21.568Z,7.07
2022-10-25T06:02:23.189Z,6.60
2022-10-25T06:07:24.830Z,6.80
2022-10-25T06:12:26.310Z,6.70
2022-10-25T06:17:27.776Z,6.68
2022-10-25T06:22:29.256Z,6.50
2022-10-25T06:27:30.928Z,7.03
2022-10-25T06:32:32.786Z,6.68
2022-10-25T06:37:34.323Z,8.30
2022-10-25T06:42:35.779Z,7.25
2022-10-25T06:47:37.228Z,8.02
2022-10-25T06:52:38.681Z,7.38
2022-10-25T06:57:40.202Z,7.53
2022-10-25T07:02:41.650Z,7.72
2022-10-25T07:07:43.111Z,7.20
2022-10-25T07:12:44.560Z,7.57
2022-10-25T07:17:46.446Z,6.85
2022-10-25T07:22:50.148Z,7.85
2022-10-25T07:27:51.608Z,7.88
2022-10-25T07:32:53.526Z,6.63
2022-10-25T07:37:55.282Z,6.95
2022-10-25T07:42:56.793Z,6.53
2022-10-25T07:47:58.324Z,6.22
2022-10-25T07:52:59.897Z,6.63
2022-10-25T07:58:03.038Z,5.63
2022-10-25T08:03:04.640Z,5.53
2022-10-25T08:08:06.305Z,5.47
2022-10-25T08:13:07.768Z,5.80
2022-10-25T08:18:12.075Z,5.45
2022-10-25T08:23:14.374Z,5.75
2022-10-25T08:28:15.877Z,5.05
2022-10-25T08:33:17.439Z,4.97
2022-10-25T08:38:19.028Z,5.22
2022-10-25T08:43:50.205Z,4.90
2022-10-25T08:49:06.711Z,5.07
2022-10-25T08:54:27.632Z,5.07
2022-10-25T08:59:35.350Z,5.30
2022-10-25T09:04:36.858Z,4.90
2022-10-25T09:09:49.696Z,4.68
2022-10-25T09:15:20.682Z,6.22
2022-10-25T09:20:31.445Z,4.13
2022-10-25T09:25:44.337Z,4.35
2022-10-25T09:30:46.145Z,3.88
2022-10-25T09:35:53.176Z,3.80
2022-10-25T09:41:03.735Z,3.53
2022-10-25T09:46:13.776Z,3.85
2022-10-25T09:51:22.579Z,3.30
2022-10-25T09:56:23.989Z,3.57
2022-10-25T10:01:29.400Z,3.10
2022-10-25T10:06:37.537Z,3.45
2022-10-25T10:11:39.790Z,3.45
2022-10-25T10:16:50.077Z,2.90
2022-10-25T10:21:56.193Z,3.15
2022-10-25T10:27:00.166Z,2.72
2022-10-25T10:32:06.426Z,2.92
2022-10-25T10:37:14.572Z,3.03
2022-10-25T10:42:37.538Z,4.97
2022-10-25T10:47:58.960Z,3.67
2022-10-25T10:53:02.354Z,3.10
2022-10-25T10:58:23.619Z,4.45
2022-10-25T11:03:58.774Z,3.67
2022-10-25T11:09:12.247Z,4.07
2022-10-25T11:14:15.742Z,3.42
2022-10-25T11:19:29.356Z,3.45
2022-10-25T11:24:33.952Z,3.33
2022-10-25T11:30:03.488Z,3.30
2022-10-25T11:35:58.550Z,3.23
2022-10-25T11:41:37.187Z,3.20
2022-10-25T11:46:41.741Z,2.90
2022-10-25T11:52:08.384Z,2.45
2022-10-25T11:57:29.748Z,1.80
2022-10-25T12:02:42.137Z,2.10
2022-10-25T12:08:18.767Z,1.63
2022-10-25T12:13:31.257Z,1.60
2022-10-25T12:18:38.054Z,1.33
2022-10-25T12:23:44.258Z,1.75
2022-10-25T12:28:50.641Z,1.60
2022-10-25T12:34:07.273Z,3.38
2022-10-25T12:39:44.605Z,1.90
2022-10-25T12:44:55.037Z,1.70
2022-10-25T12:50:24.351Z,1.40
2022-10-25T12:55:25.767Z,2.22
2022-10-25T13:00:33.980Z,1.80
2022-10-25T13:06:03.284Z,1.40
2022-10-25T13:11:07.091Z,1.65
2022-10-25T13:16:10.921Z,1.40
2022-10-25T13:21:34.840Z,2.20
2022-10-25T13:27:18.677Z,1.50
2022-10-25T13:32:21.085Z,2.20
2022-10-25T13:37:39.762Z,1.90
2022-10-25T13:42:43.831Z,1.83
2022-10-25T13:47:55.580Z,2.20
2022-10-25T13:53:18.463Z,1.90
2022-10-25T13:58:31.724Z,2.38
2022-10-25T14:03:45.237Z,2.45
2022-10-25T14:09:01.100Z,2.35
2022-10-25T14:14:16.631Z,2.30
2022-10-25T14:19:24.483Z,2.05
2022-10-25T14:24:26.036Z,2.78
2022-10-25T14:29:29.503Z,2.65
2022-10-25T14:34:31.664Z,2.40
2022-10-25T14:39:34.935Z,2.53
2022-10-25T14:44:48.161Z,2.05
2022-10-25T14:49:49.630Z,2.40
2022-10-25T14:54:59.395Z,2.30
2022-10-25T15:00:05.214Z,2.13
2022-10-25T15:05:07.508Z,1.90
2022-10-25T15:10:36.459Z,2.65
2022-10-25T15:15:43.908Z,2.75
2022-10-25T15:20:49.324Z,2.80
2022-10-25T15:25:50.865Z,3.42
2022-10-25T15:31:02.838Z,3.50
2022-10-25T15:36:05.306Z,2.80
2022-10-25T15:41:08.460Z,3.20
2022-10-25T15:46:29.502Z,3.47
2022-10-25T15:51:38.193Z,3.80
2022-10-25T15:56:39.784Z,3.28
2022-10-25T16:01:44.085Z,3.13
2022-10-25T16:06:46.508Z,2.85
2022-10-25T16:11:54.158Z,3.45
2022-10-25T16:17:03.479Z,2.67
2022-10-25T16:22:04.983Z,3.10
2022-10-25T16:27:06.442Z,3.58
2022-10-25T16:32:07.953Z,3.72
2022-10-25T16:37:11.915Z,4.22
2022-10-25T16:42:37.413Z,4.47
2022-10-25T16:47:38.883Z,6.93
2022-10-25T16:52:41.249Z,4.65
2022-10-25T16:57:42.883Z,5.70
2022-10-25T17:02:44.447Z,5.75
2022-10-25T17:07:46.313Z,6.10
2022-10-25T17:12:50.823Z,6.38
2022-10-25T17:17:52.579Z,6.05
2022-10-25T17:22:54.577Z,5.55
2022-10-25T17:27:56.059Z,5.50
2022-10-25T17:32:57.496Z,4.57
2022-10-25T17:37:58.993Z,5.03
2022-10-25T17:43:00.470Z,5.35
2022-10-25T17:48:02.609Z,5.78
2022-10-25T17:53:04.146Z,5.85
2022-10-25T17:58:06.676Z,6.38
2022-10-25T18:03:08.151Z,6.97
2022-10-25T18:08:09.591Z,8.45
2022-10-25T18:13:11.103Z,8.65
2022-10-25T18:18:12.991Z,6.70
2022-10-25T18:23:14.558Z,5.55
2022-10-25T18:28:16.030Z,7.20
2022-10-25T18:33:18.762Z,7.50
2022-10-25T18:38:20.297Z,7.22
2022-10-25T18:43:23.366Z,6.07
2022-10-25T18:48:25.674Z,7.13
2022-10-25T18:53:27.298Z,5.78
2022-10-25T18:58:32.080Z,6.63
2022-10-25T19:03:33.659Z,6.50
2022-10-25T19:08:36.287Z,6.03
2022-10-25T19:13:38.243Z,5.75
2022-10-25T19:18:39.931Z,6.10
2022-10-25T19:23:44.427Z,6.40
2022-10-25T19:28:46.457Z,6.28
2022-10-25T19:33:49.354Z,6.68
2022-10-25T19:38:51.140Z,6.70
2022-10-25T19:43:53.655Z,5.97
2022-10-25T19:48:56.209Z,6.78
2022-10-25T19:53:57.908Z,7.90
2022-10-25T19:58:59.434Z,7.30
2022-10-25T20:04:00.913Z,7.28
2022-10-25T20:09:02.437Z,6.15
2022-10-25T20:14:04.520Z,5.40
2022-10-25T20:19:05.994Z,6.43
2022-10-25T20:24:09.175Z,5.35
2022-10-25T20:29:20.157Z,5.38
2022-10-25T20:34:22.944Z,5.95
2022-10-25T20:39:24.393Z,5.72
2022-10-25T20:44:25.943Z,5.80
2022-10-25T20:49:27.416Z,6.60
2022-10-25T20:54:29.034Z,5.80
2022-10-25T20:59:30.558Z,6.60
2022-10-25T21:09:53.469Z,6.40
2022-10-25T21:14:55.006Z,5.95
2022-10-25T21:19:56.453Z,6.47
2022-10-25T21:24:57.921Z,6.50
2022-10-25T21:29:59.366Z,6.63
2022-10-25T21:35:01.338Z,6.15
2022-10-25T21:40:02.812Z,6.18
2022-10-25T21:45:04.465Z,6.57
2022-10-25T21:50:07.174Z,5.82
2022-10-25T21:55:09.399Z,5.82
2022-10-25T22:00:12.355Z,5.88
2022-10-25T22:05:16.428Z,5.55
2022-10-25T22:10:17.877Z,5.57
2022-10-25T22:15:19.312Z,6.10
2022-10-25T22:20:20.876Z,5.03
2022-10-25T22:25:23.030Z,5.20
2022-10-25T22:30:24.503Z,4.65
2022-10-25T22:35:25.991Z,5.50
2022-10-25T22:40:27.956Z,6.00
2022-10-25T22:45:29.433Z,5.93
2022-10-25T22:50:31.710Z,6.15
2022-10-25T22:55:33.491Z,6.03
2022-10-25T23:00:35.041Z,5.70
2022-10-25T23:05:36.483Z,5.82
2022-10-25T23:10:37.994Z,5.88
2022-10-25T23:15:39.444Z,5.45
2022-10-25T23:20:54.700Z,5.47
2022-10-25T23:26:00.220Z,5.18
2022-10-25T23:31:06.680Z,5.45
2022-10-25T23:36:10.767Z,5.80
2022-10-25T23:41:13.104Z,6.40
2022-10-25T23:46:14.827Z,8.60
2022-10-25T23:51:18.152Z,6.30
2022-10-25T23:56:20.073Z,6.20
